sensor_id;sensor_type;location;lat;lon;timestamp;P1;durP1;ratioP1;P2;durP2;ratioP2
21014;SDS011;19207;-23.482;-46.500;2023-02-03T00:00:26;4.70;;;3.50;;
21014;SDS011;19207;-23.482;-46.500;2023-02-03T00:03:15;5.43;;;3.37;;
21014;SDS011;19207;-23.482;-46.500;2023-02-03T00:06:03;8.40;;;3.40;;
21014;SDS011;19207;-23.482;-46.500;2023-02-03T00:08:51;4.22;;;3.40;;
21014;SDS011;19207;-23.482;-46.500;2023-02-03T00:11:38;3.87;;;3.03;;
21014;SDS011;19207;-23.482;-46.500;2023-02-03T00:14:24;4.40;;;3.30;;
21014;SDS011;19207;-23.482;-46.500;2023-02-03T00:17:10;4.55;;;3.30;;
21014;SDS011;19207;-23.482;-46.500;2023-02-03T00:20:00;4.95;;;3.50;;
21014;SDS011;19207;-23.482;-46.500;2023-02-03T00:22:46;4.40;;;3.40;;
21014;SDS011;19207;-23.482;-46.500;2023-02-03T00:25:34;3.87;;;3.15;;
21014;SDS011;19207;-23.482;-46.500;2023-02-03T00:28:21;5.12;;;3.22;;
21014;SDS011;19207;-23.482;-46.500;2023-02-03T00:31:19;9.48;;;4.87;;
21014;SDS011;19207;-23.482;-46.500;2023-02-03T00:34:06;4.62;;;3.28;;
21014;SDS011;19207;-23.482;-46.500;2023-02-03T00:36:53;5.75;;;3.30;;
21014;SDS011;19207;-23.482;-46.500;2023-02-03T00:39:39;11.30;;;3.80;;
21014;SDS011;19207;-23.482;-46.500;2023-02-03T00:42:26;4.10;;;3.40;;
21014;SDS011;19207;-23.482;-46.500;2023-02-03T00:45:12;8.48;;;3.75;;
21014;SDS011;19207;-23.482;-46.500;2023-02-03T00:47:59;4.03;;;3.62;;
21014;SDS011;19207;-23.482;-46.500;2023-02-03T00:50:46;5.93;;;3.97;;
21014;SDS011;19207;-23.482;-46.500;2023-02-03T00:53:33;6.28;;;3.70;;
21014;SDS011;19207;-23.482;-46.500;2023-02-03T00:56:20;5.15;;;3.90;;
21014;SDS011;19207;-23.482;-46.500;2023-02-03T00:59:07;8.27;;;3.92;;
21014;SDS011;19207;-23.482;-46.500;2023-02-03T01:01:54;5.70;;;3.90;;
21014;SDS011;19207;-23.482;-46.500;2023-02-03T01:04:40;5.15;;;3.65;;
21014;SDS011;19207;-23.482;-46.500;2023-02-03T01:07:28;4.47;;;3.85;;
21014;SDS011;19207;-23.482;-46.500;2023-02-03T01:10:16;4.45;;;3.90;;
21014;SDS011;19207;-23.482;-46.500;2023-02-03T01:13:03;6.45;;;3.90;;
21014;SDS011;19207;-23.482;-46.500;2023-02-03T01:15:50;6.72;;;4.03;;
21014;SDS011;19207;-23.482;-46.500;2023-02-03T01:18:37;6.37;;;3.95;;
21014;SDS011;19207;-23.482;-46.500;2023-02-03T01:21:24;8.27;;;3.80;;
21014;SDS011;19207;-23.482;-46.500;2023-02-03T01:24:11;6.22;;;4.30;;
21014;SDS011;19207;-23.482;-46.500;2023-02-03T01:27:00;8.33;;;5.17;;
21014;SDS011;19207;-23.482;-46.500;2023-02-03T01:29:46;16.83;;;7.03;;
21014;SDS011;19207;-23.482;-46.500;2023-02-03T01:32:34;44.17;;;16.35;;
21014;SDS011;19207;-23.482;-46.500;2023-02-03T01:35:20;37.85;;;15.43;;
21014;SDS011;19207;-23.482;-46.500;2023-02-03T01:38:07;15.15;;;7.50;;
21014;SDS011;19207;-23.482;-46.500;2023-02-03T01:40:54;10.07;;;4.80;;
21014;SDS011;19207;-23.482;-46.500;2023-02-03T01:43:42;10.32;;;5.82;;
21014;SDS011;19207;-23.482;-46.500;2023-02-03T01:46:40;10.50;;;4.40;;
21014;SDS011;19207;-23.482;-46.500;2023-02-03T01:49:31;10.20;;;4.47;;
21014;SDS011;19207;-23.482;-46.500;2023-02-03T01:52:19;6.03;;;4.57;;
21014;SDS011;19207;-23.482;-46.500;2023-02-03T01:55:06;8.52;;;4.75;;
21014;SDS011;19207;-23.482;-46.500;2023-02-03T01:57:55;8.63;;;4.28;;
21014;SDS011;19207;-23.482;-46.500;2023-02-03T02:00:42;8.50;;;3.67;;
21014;SDS011;19207;-23.482;-46.500;2023-02-03T02:03:37;5.90;;;3.50;;
21014;SDS011;19207;-23.482;-46.500;2023-02-03T02:06:25;4.60;;;3.53;;
21014;SDS011;19207;-23.482;-46.500;2023-02-03T02:09:12;9.25;;;3.60;;
21014;SDS011;19207;-23.482;-46.500;2023-02-03T02:11:59;5.12;;;3.25;;
21014;SDS011;19207;-23.482;-46.500;2023-02-03T02:14:46;8.73;;;3.67;;
21014;SDS011;19207;-23.482;-46.500;2023-02-03T02:17:35;7.53;;;3.80;;
21014;SDS011;19207;-23.482;-46.500;2023-02-03T02:27:02;8.93;;;3.75;;
21014;SDS011;19207;-23.482;-46.500;2023-02-03T02:32:46;4.10;;;3.20;;
21014;SDS011;19207;-23.482;-46.500;2023-02-03T02:35:44;3.40;;;3.10;;
21014;SDS011;19207;-23.482;-46.500;2023-02-03T02:41:41;4.40;;;3.10;;
21014;SDS011;19207;-23.482;-46.500;2023-02-03T02:44:32;4.30;;;3.20;;
21014;SDS011;19207;-23.482;-46.500;2023-02-03T02:47:20;5.50;;;3.08;;
21014;SDS011;19207;-23.482;-46.500;2023-02-03T02:52:54;3.50;;;3.20;;
21014;SDS011;19207;-23.482;-46.500;2023-02-03T02:55:42;7.05;;;3.35;;
21014;SDS011;19207;-23.482;-46.500;2023-02-03T02:58:31;6.25;;;3.08;;
21014;SDS011;19207;-23.482;-46.500;2023-02-03T03:01:19;3.58;;;3.28;;
21014;SDS011;19207;-23.482;-46.500;2023-02-03T03:04:07;4.78;;;3.10;;
21014;SDS011;19207;-23.482;-46.500;2023-02-03T03:06:57;6.22;;;4.28;;
21014;SDS011;19207;-23.482;-46.500;2023-02-03T03:09:49;8.77;;;3.67;;
21014;SDS011;19207;-23.482;-46.500;2023-02-03T03:12:40;7.45;;;3.50;;
21014;SDS011;19207;-23.482;-46.500;2023-02-03T03:15:31;5.25;;;3.62;;
21014;SDS011;19207;-23.482;-46.500;2023-02-03T03:18:22;5.72;;;4.00;;
21014;SDS011;19207;-23.482;-46.500;2023-02-03T03:21:15;5.87;;;3.92;;
21014;SDS011;19207;-23.482;-46.500;2023-02-03T03:24:04;4.05;;;3.65;;
21014;SDS011;19207;-23.482;-46.500;2023-02-03T03:26:57;7.28;;;3.83;;
21014;SDS011;19207;-23.482;-46.500;2023-02-03T03:29:47;4.40;;;4.00;;
21014;SDS011;19207;-23.482;-46.500;2023-02-03T03:32:37;4.70;;;3.65;;
21014;SDS011;19207;-23.482;-46.500;2023-02-03T03:35:24;5.10;;;3.50;;
21014;SDS011;19207;-23.482;-46.500;2023-02-03T03:38:18;5.07;;;3.83;;
21014;SDS011;19207;-23.482;-46.500;2023-02-03T03:41:07;5.65;;;3.65;;
21014;SDS011;19207;-23.482;-46.500;2023-02-03T03:44:00;3.85;;;3.37;;
21014;SDS011;19207;-23.482;-46.500;2023-02-03T03:46:50;6.53;;;3.80;;
21014;SDS011;19207;-23.482;-46.500;2023-02-03T03:49:42;4.90;;;3.50;;
21014;SDS011;19207;-23.482;-46.500;2023-02-03T03:52:34;4.03;;;3.47;;
21014;SDS011;19207;-23.482;-46.500;2023-02-03T03:55:24;4.80;;;3.47;;
21014;SDS011;19207;-23.482;-46.500;2023-02-03T03:58:15;4.32;;;3.92;;
21014;SDS011;19207;-23.482;-46.500;2023-02-03T04:01:05;3.50;;;3.20;;
21014;SDS011;19207;-23.482;-46.500;2023-02-03T04:03:57;3.30;;;3.00;;
21014;SDS011;19207;-23.482;-46.500;2023-02-03T04:06:49;3.00;;;2.80;;
21014;SDS011;19207;-23.482;-46.500;2023-02-03T04:09:38;4.00;;;3.10;;
21014;SDS011;19207;-23.482;-46.500;2023-02-03T04:12:27;11.50;;;3.37;;
21014;SDS011;19207;-23.482;-46.500;2023-02-03T04:15:17;3.70;;;3.03;;
21014;SDS011;19207;-23.482;-46.500;2023-02-03T04:18:06;5.35;;;3.70;;
21014;SDS011;19207;-23.482;-46.500;2023-02-03T04:20:57;6.72;;;4.00;;
21014;SDS011;19207;-23.482;-46.500;2023-02-03T04:23:44;9.82;;;4.60;;
21014;SDS011;19207;-23.482;-46.500;2023-02-03T04:26:34;6.75;;;3.87;;
21014;SDS011;19207;-23.482;-46.500;2023-02-03T04:29:22;3.78;;;3.30;;
21014;SDS011;19207;-23.482;-46.500;2023-02-03T04:32:11;5.20;;;3.45;;
21014;SDS011;19207;-23.482;-46.500;2023-02-03T04:35:02;5.90;;;3.65;;
21014;SDS011;19207;-23.482;-46.500;2023-02-03T04:37:52;6.20;;;3.40;;
21014;SDS011;19207;-23.482;-46.500;2023-02-03T04:40:40;5.20;;;3.20;;
21014;SDS011;19207;-23.482;-46.500;2023-02-03T04:43:39;7.40;;;3.30;;
21014;SDS011;19207;-23.482;-46.500;2023-02-03T04:46:29;4.85;;;3.10;;
21014;SDS011;19207;-23.482;-46.500;2023-02-03T04:49:17;4.87;;;2.92;;
21014;SDS011;19207;-23.482;-46.500;2023-02-03T04:52:05;4.07;;;3.00;;
21014;SDS011;19207;-23.482;-46.500;2023-02-03T04:54:53;4.45;;;3.20;;
21014;SDS011;19207;-23.482;-46.500;2023-02-03T04:57:48;4.18;;;2.62;;
21014;SDS011;19207;-23.482;-46.500;2023-02-03T05:00:39;2.92;;;2.58;;
21014;SDS011;19207;-23.482;-46.500;2023-02-03T05:03:27;3.35;;;2.50;;
21014;SDS011;19207;-23.482;-46.500;2023-02-03T05:06:16;2.62;;;2.40;;
21014;SDS011;19207;-23.482;-46.500;2023-02-03T05:09:03;4.30;;;2.55;;
21014;SDS011;19207;-23.482;-46.500;2023-02-03T05:11:51;2.65;;;2.45;;
21014;SDS011;19207;-23.482;-46.500;2023-02-03T05:14:41;2.90;;;2.47;;
21014;SDS011;19207;-23.482;-46.500;2023-02-03T05:17:30;3.35;;;2.65;;
21014;SDS011;19207;-23.482;-46.500;2023-02-03T05:20:23;2.85;;;2.50;;
21014;SDS011;19207;-23.482;-46.500;2023-02-03T05:23:14;6.70;;;2.42;;
21014;SDS011;19207;-23.482;-46.500;2023-02-03T05:26:07;5.50;;;2.53;;
21014;SDS011;19207;-23.482;-46.500;2023-02-03T05:28:55;2.95;;;2.60;;
21014;SDS011;19207;-23.482;-46.500;2023-02-03T05:31:45;2.83;;;2.60;;
21014;SDS011;19207;-23.482;-46.500;2023-02-03T05:34:42;3.85;;;2.50;;
21014;SDS011;19207;-23.482;-46.500;2023-02-03T05:37:38;14.10;;;2.97;;
21014;SDS011;19207;-23.482;-46.500;2023-02-03T05:40:26;3.60;;;2.60;;
21014;SDS011;19207;-23.482;-46.500;2023-02-03T05:43:34;2.65;;;2.42;;
21014;SDS011;19207;-23.482;-46.500;2023-02-03T05:46:26;3.62;;;2.67;;
21014;SDS011;19207;-23.482;-46.500;2023-02-03T05:49:19;2.62;;;2.40;;
21014;SDS011;19207;-23.482;-46.500;2023-02-03T05:52:16;2.42;;;2.22;;
21014;SDS011;19207;-23.482;-46.500;2023-02-03T05:55:05;2.40;;;2.20;;
21014;SDS011;19207;-23.482;-46.500;2023-02-03T05:57:54;2.50;;;2.28;;
21014;SDS011;19207;-23.482;-46.500;2023-02-03T06:00:49;3.42;;;2.40;;
21014;SDS011;19207;-23.482;-46.500;2023-02-03T06:03:36;3.08;;;2.50;;
21014;SDS011;19207;-23.482;-46.500;2023-02-03T06:06:33;2.78;;;2.50;;
21014;SDS011;19207;-23.482;-46.500;2023-02-03T06:09:23;3.70;;;2.60;;
21014;SDS011;19207;-23.482;-46.500;2023-02-03T06:12:13;4.55;;;2.47;;
21014;SDS011;19207;-23.482;-46.500;2023-02-03T06:15:07;7.40;;;2.40;;
21014;SDS011;19207;-23.482;-46.500;2023-02-03T06:17:57;4.53;;;2.40;;
21014;SDS011;19207;-23.482;-46.500;2023-02-03T06:20:45;5.18;;;2.50;;
21014;SDS011;19207;-23.482;-46.500;2023-02-03T06:23:39;4.37;;;2.45;;
21014;SDS011;19207;-23.482;-46.500;2023-02-03T06:26:33;5.68;;;2.40;;
21014;SDS011;19207;-23.482;-46.500;2023-02-03T06:29:27;2.50;;;2.25;;
21014;SDS011;19207;-23.482;-46.500;2023-02-03T06:32:15;3.70;;;2.60;;
21014;SDS011;19207;-23.482;-46.500;2023-02-03T06:35:05;2.95;;;2.70;;
21014;SDS011;19207;-23.482;-46.500;2023-02-03T06:37:55;5.40;;;3.00;;
21014;SDS011;19207;-23.482;-46.500;2023-02-03T06:40:46;9.52;;;3.10;;
21014;SDS011;19207;-23.482;-46.500;2023-02-03T06:43:35;4.82;;;3.10;;
21014;SDS011;19207;-23.482;-46.500;2023-02-03T06:46:27;4.80;;;2.95;;
21014;SDS011;19207;-23.482;-46.500;2023-02-03T06:49:21;7.20;;;3.03;;
21014;SDS011;19207;-23.482;-46.500;2023-02-03T06:52:12;5.12;;;3.00;;
21014;SDS011;19207;-23.482;-46.500;2023-02-03T06:55:03;5.82;;;3.03;;
21014;SDS011;19207;-23.482;-46.500;2023-02-03T06:58:01;3.62;;;2.78;;
21014;SDS011;19207;-23.482;-46.500;2023-02-03T07:00:53;7.30;;;3.03;;
21014;SDS011;19207;-23.482;-46.500;2023-02-03T07:03:43;3.30;;;3.00;;
21014;SDS011;19207;-23.482;-46.500;2023-02-03T07:06:57;3.87;;;3.03;;
21014;SDS011;19207;-23.482;-46.500;2023-02-03T07:09:53;8.20;;;3.25;;
21014;SDS011;19207;-23.482;-46.500;2023-02-03T07:12:48;6.45;;;3.50;;
21014;SDS011;19207;-23.482;-46.500;2023-02-03T07:15:38;7.97;;;3.72;;
21014;SDS011;19207;-23.482;-46.500;2023-02-03T07:18:26;6.22;;;3.87;;
21014;SDS011;19207;-23.482;-46.500;2023-02-03T07:21:18;8.93;;;3.85;;
21014;SDS011;19207;-23.482;-46.500;2023-02-03T07:24:08;6.12;;;3.60;;
21014;SDS011;19207;-23.482;-46.500;2023-02-03T07:26:57;8.50;;;4.00;;
21014;SDS011;19207;-23.482;-46.500;2023-02-03T07:29:45;6.47;;;4.03;;
21014;SDS011;19207;-23.482;-46.500;2023-02-03T07:32:33;9.55;;;4.22;;
21014;SDS011;19207;-23.482;-46.500;2023-02-03T07:35:21;7.22;;;4.68;;
21014;SDS011;19207;-23.482;-46.500;2023-02-03T07:38:10;5.15;;;3.95;;
21014;SDS011;19207;-23.482;-46.500;2023-02-03T07:40:59;9.70;;;4.18;;
21014;SDS011;19207;-23.482;-46.500;2023-02-03T07:43:47;11.02;;;4.10;;
21014;SDS011;19207;-23.482;-46.500;2023-02-03T07:46:36;4.78;;;3.80;;
21014;SDS011;19207;-23.482;-46.500;2023-02-03T07:49:31;7.85;;;3.90;;
21014;SDS011;19207;-23.482;-46.500;2023-02-03T07:52:20;7.25;;;3.85;;
21014;SDS011;19207;-23.482;-46.500;2023-02-03T07:55:09;10.57;;;4.47;;
21014;SDS011;19207;-23.482;-46.500;2023-02-03T07:57:57;7.57;;;4.30;;
21014;SDS011;19207;-23.482;-46.500;2023-02-03T08:00:45;9.90;;;5.30;;
21014;SDS011;19207;-23.482;-46.500;2023-02-03T08:03:33;10.35;;;5.65;;
21014;SDS011;19207;-23.482;-46.500;2023-02-03T08:06:20;15.52;;;7.25;;
21014;SDS011;19207;-23.482;-46.500;2023-02-03T08:09:08;29.92;;;11.80;;
21014;SDS011;19207;-23.482;-46.500;2023-02-03T08:11:57;25.20;;;10.30;;
21014;SDS011;19207;-23.482;-46.500;2023-02-03T08:14:45;20.85;;;9.48;;
21014;SDS011;19207;-23.482;-46.500;2023-02-03T08:17:34;18.33;;;9.50;;
21014;SDS011;19207;-23.482;-46.500;2023-02-03T08:20:26;15.68;;;9.65;;
21014;SDS011;19207;-23.482;-46.500;2023-02-03T08:23:15;22.50;;;8.93;;
21014;SDS011;19207;-23.482;-46.500;2023-02-03T08:26:03;21.90;;;10.05;;
21014;SDS011;19207;-23.482;-46.500;2023-02-03T08:28:51;26.70;;;11.02;;
21014;SDS011;19207;-23.482;-46.500;2023-02-03T08:31:40;32.33;;;10.90;;
21014;SDS011;19207;-23.482;-46.500;2023-02-03T08:34:28;37.65;;;11.82;;
21014;SDS011;19207;-23.482;-46.500;2023-02-03T08:37:17;32.20;;;12.13;;
21014;SDS011;19207;-23.482;-46.500;2023-02-03T08:40:06;29.63;;;10.00;;
21014;SDS011;19207;-23.482;-46.500;2023-02-03T08:42:53;15.32;;;7.70;;
21014;SDS011;19207;-23.482;-46.500;2023-02-03T08:45:40;13.38;;;7.40;;
21014;SDS011;19207;-23.482;-46.500;2023-02-03T08:48:26;15.45;;;7.22;;
21014;SDS011;19207;-23.482;-46.500;2023-02-03T08:51:16;20.70;;;7.35;;
21014;SDS011;19207;-23.482;-46.500;2023-02-03T08:54:04;14.40;;;6.80;;
21014;SDS011;19207;-23.482;-46.500;2023-02-03T08:56:57;13.98;;;6.65;;
21014;SDS011;19207;-23.482;-46.500;2023-02-03T08:59:47;8.52;;;6.10;;
21014;SDS011;19207;-23.482;-46.500;2023-02-03T09:02:36;11.15;;;5.75;;
21014;SDS011;19207;-23.482;-46.500;2023-02-03T09:05:24;11.10;;;5.97;;
21014;SDS011;19207;-23.482;-46.500;2023-02-03T09:08:12;9.57;;;5.40;;
21014;SDS011;19207;-23.482;-46.500;2023-02-03T09:11:01;11.10;;;5.60;;
21014;SDS011;19207;-23.482;-46.500;2023-02-03T09:13:48;6.10;;;4.90;;
21014;SDS011;19207;-23.482;-46.500;2023-02-03T09:16:37;7.97;;;4.80;;
21014;SDS011;19207;-23.482;-46.500;2023-02-03T09:19:25;10.75;;;4.85;;
21014;SDS011;19207;-23.482;-46.500;2023-02-03T09:22:13;6.97;;;4.85;;
21014;SDS011;19207;-23.482;-46.500;2023-02-03T09:25:02;6.65;;;4.78;;
21014;SDS011;19207;-23.482;-46.500;2023-02-03T09:27:50;6.90;;;4.90;;
21014;SDS011;19207;-23.482;-46.500;2023-02-03T09:30:38;9.73;;;4.60;;
21014;SDS011;19207;-23.482;-46.500;2023-02-03T09:33:27;8.27;;;5.18;;
21014;SDS011;19207;-23.482;-46.500;2023-02-03T09:36:16;8.80;;;4.70;;
21014;SDS011;19207;-23.482;-46.500;2023-02-03T09:39:05;6.03;;;4.75;;
21014;SDS011;19207;-23.482;-46.500;2023-02-03T09:42:06;7.25;;;4.70;;
21014;SDS011;19207;-23.482;-46.500;2023-02-03T09:47:46;5.55;;;4.65;;
21014;SDS011;19207;-23.482;-46.500;2023-02-03T09:50:38;8.80;;;4.57;;
21014;SDS011;19207;-23.482;-46.500;2023-02-03T09:53:41;8.05;;;4.80;;
21014;SDS011;19207;-23.482;-46.500;2023-02-03T09:56:34;8.48;;;4.87;;
21014;SDS011;19207;-23.482;-46.500;2023-02-03T09:59:23;8.52;;;5.10;;
21014;SDS011;19207;-23.482;-46.500;2023-02-03T10:08:19;5.07;;;4.50;;
21014;SDS011;19207;-23.482;-46.500;2023-02-03T10:17:32;5.40;;;4.10;;
21014;SDS011;19207;-23.482;-46.500;2023-02-03T10:20:35;7.07;;;4.28;;
21014;SDS011;19207;-23.482;-46.500;2023-02-03T10:26:19;7.37;;;4.37;;
21014;SDS011;19207;-23.482;-46.500;2023-02-03T10:29:18;6.82;;;4.22;;
21014;SDS011;19207;-23.482;-46.500;2023-02-03T10:32:09;7.37;;;4.25;;
21014;SDS011;19207;-23.482;-46.500;2023-02-03T10:34:56;7.55;;;4.30;;
21014;SDS011;19207;-23.482;-46.500;2023-02-03T10:37:48;5.62;;;4.30;;
21014;SDS011;19207;-23.482;-46.500;2023-02-03T10:40:38;5.10;;;4.22;;
21014;SDS011;19207;-23.482;-46.500;2023-02-03T10:43:27;14.18;;;4.37;;
21014;SDS011;19207;-23.482;-46.500;2023-02-03T10:46:34;11.60;;;5.00;;
21014;SDS011;19207;-23.482;-46.500;2023-02-03T10:49:23;11.30;;;4.75;;
21014;SDS011;19207;-23.482;-46.500;2023-02-03T10:52:30;7.57;;;4.47;;
21014;SDS011;19207;-23.482;-46.500;2023-02-03T10:58:24;9.82;;;4.50;;
21014;SDS011;19207;-23.482;-46.500;2023-02-03T11:01:19;10.13;;;3.60;;
21014;SDS011;19207;-23.482;-46.500;2023-02-03T11:04:45;5.47;;;3.85;;
21014;SDS011;19207;-23.482;-46.500;2023-02-03T11:07:29;7.85;;;3.55;;
21014;SDS011;19207;-23.482;-46.500;2023-02-03T11:10:33;5.70;;;3.55;;
21014;SDS011;19207;-23.482;-46.500;2023-02-03T11:13:24;10.80;;;4.05;;
21014;SDS011;19207;-23.482;-46.500;2023-02-03T11:16:17;5.43;;;3.70;;
21014;SDS011;19207;-23.482;-46.500;2023-02-03T11:19:16;5.82;;;3.62;;
21014;SDS011;19207;-23.482;-46.500;2023-02-03T11:22:08;7.40;;;3.30;;
21014;SDS011;19207;-23.482;-46.500;2023-02-03T11:24:57;4.82;;;3.35;;
21014;SDS011;19207;-23.482;-46.500;2023-02-03T11:27:47;4.55;;;3.12;;
21014;SDS011;19207;-23.482;-46.500;2023-02-03T11:30:36;5.47;;;3.42;;
21014;SDS011;19207;-23.482;-46.500;2023-02-03T11:33:25;4.78;;;3.58;;
21014;SDS011;19207;-23.482;-46.500;2023-02-03T11:36:16;6.12;;;3.70;;
21014;SDS011;19207;-23.482;-46.500;2023-02-03T11:42:01;5.03;;;3.58;;
21014;SDS011;19207;-23.482;-46.500;2023-02-03T11:44:57;4.80;;;3.42;;
21014;SDS011;19207;-23.482;-46.500;2023-02-03T11:54:00;3.45;;;3.15;;
21014;SDS011;19207;-23.482;-46.500;2023-02-03T12:00:07;4.25;;;3.58;;
21014;SDS011;19207;-23.482;-46.500;2023-02-03T12:09:03;4.53;;;3.20;;
21014;SDS011;19207;-23.482;-46.500;2023-02-03T12:15:03;3.30;;;3.00;;
21014;SDS011;19207;-23.482;-46.500;2023-02-03T12:17:58;3.67;;;2.80;;
21014;SDS011;19207;-23.482;-46.500;2023-02-03T12:20:59;5.62;;;3.00;;
21014;SDS011;19207;-23.482;-46.500;2023-02-03T12:30:17;3.80;;;3.40;;
21014;SDS011;19207;-23.482;-46.500;2023-02-03T12:33:16;6.00;;;4.85;;
21014;SDS011;19207;-23.482;-46.500;2023-02-03T12:36:20;4.57;;;3.62;;
21014;SDS011;19207;-23.482;-46.500;2023-02-03T12:39:12;6.90;;;3.53;;
21014;SDS011;19207;-23.482;-46.500;2023-02-03T12:42:05;5.22;;;2.90;;
21014;SDS011;19207;-23.482;-46.500;2023-02-03T12:45:15;8.38;;;7.68;;
21014;SDS011;19207;-23.482;-46.500;2023-02-03T12:48:13;4.28;;;3.40;;
21014;SDS011;19207;-23.482;-46.500;2023-02-03T12:51:07;11.57;;;10.68;;
21014;SDS011;19207;-23.482;-46.500;2023-02-03T12:53:59;4.30;;;3.40;;
21014;SDS011;19207;-23.482;-46.500;2023-02-03T12:56:53;10.57;;;3.50;;
21014;SDS011;19207;-23.482;-46.500;2023-02-03T13:00:23;5.35;;;3.15;;
21014;SDS011;19207;-23.482;-46.500;2023-02-03T13:03:12;8.70;;;7.87;;
21014;SDS011;19207;-23.482;-46.500;2023-02-03T13:06:22;3.92;;;3.35;;
21014;SDS011;19207;-23.482;-46.500;2023-02-03T13:18:36;4.82;;;3.62;;
21014;SDS011;19207;-23.482;-46.500;2023-02-03T13:21:29;12.02;;;3.90;;
21014;SDS011;19207;-23.482;-46.500;2023-02-03T13:24:24;7.82;;;3.92;;
21014;SDS011;19207;-23.482;-46.500;2023-02-03T13:33:25;5.10;;;3.70;;
21014;SDS011;19207;-23.482;-46.500;2023-02-03T13:42:51;4.45;;;3.80;;
21014;SDS011;19207;-23.482;-46.500;2023-02-03T13:45:49;4.25;;;3.85;;
21014;SDS011;19207;-23.482;-46.500;2023-02-03T13:48:37;9.15;;;4.62;;
21014;SDS011;19207;-23.482;-46.500;2023-02-03T13:51:51;8.45;;;4.80;;
21014;SDS011;19207;-23.482;-46.500;2023-02-03T13:54:41;5.47;;;4.60;;
21014;SDS011;19207;-23.482;-46.500;2023-02-03T13:57:36;5.97;;;5.03;;
21014;SDS011;19207;-23.482;-46.500;2023-02-03T14:03:56;6.68;;;4.60;;
21014;SDS011;19207;-23.482;-46.500;2023-02-03T14:10:20;5.93;;;4.05;;
21014;SDS011;19207;-23.482;-46.500;2023-02-03T14:13:18;9.02;;;4.20;;
21014;SDS011;19207;-23.482;-46.500;2023-02-03T14:22:21;8.43;;;4.30;;
21014;SDS011;19207;-23.482;-46.500;2023-02-03T14:25:11;4.72;;;4.10;;
21014;SDS011;19207;-23.482;-46.500;2023-02-03T14:28:16;3.78;;;3.40;;
21014;SDS011;19207;-23.482;-46.500;2023-02-03T14:31:22;4.78;;;3.80;;
21014;SDS011;19207;-23.482;-46.500;2023-02-03T14:34:14;4.10;;;3.70;;
21014;SDS011;19207;-23.482;-46.500;2023-02-03T14:37:11;4.57;;;3.50;;
21014;SDS011;19207;-23.482;-46.500;2023-02-03T14:40:10;4.90;;;4.12;;
21014;SDS011;19207;-23.482;-46.500;2023-02-03T14:58:20;5.87;;;4.40;;
21014;SDS011;19207;-23.482;-46.500;2023-02-03T15:01:23;5.05;;;3.80;;
21014;SDS011;19207;-23.482;-46.500;2023-02-03T15:04:19;7.03;;;3.60;;
21014;SDS011;19207;-23.482;-46.500;2023-02-03T15:10:25;6.45;;;3.90;;
21014;SDS011;19207;-23.482;-46.500;2023-02-03T15:13:33;5.57;;;3.80;;
21014;SDS011;19207;-23.482;-46.500;2023-02-03T15:16:27;4.70;;;3.62;;
21014;SDS011;19207;-23.482;-46.500;2023-02-03T15:19:19;5.95;;;3.83;;
21014;SDS011;19207;-23.482;-46.500;2023-02-03T15:22:27;4.90;;;4.35;;
21014;SDS011;19207;-23.482;-46.500;2023-02-03T15:25:18;6.47;;;5.15;;
21014;SDS011;19207;-23.482;-46.500;2023-02-03T15:28:20;4.82;;;3.60;;
21014;SDS011;19207;-23.482;-46.500;2023-02-03T15:31:19;6.53;;;3.30;;
21014;SDS011;19207;-23.482;-46.500;2023-02-03T15:34:22;4.47;;;3.50;;
21014;SDS011;19207;-23.482;-46.500;2023-02-03T15:37:18;7.57;;;3.78;;
21014;SDS011;19207;-23.482;-46.500;2023-02-03T15:43:37;7.78;;;3.47;;
21014;SDS011;19207;-23.482;-46.500;2023-02-03T15:46:34;10.00;;;3.60;;
21014;SDS011;19207;-23.482;-46.500;2023-02-03T15:49:31;6.15;;;3.50;;
21014;SDS011;19207;-23.482;-46.500;2023-02-03T15:52:28;4.07;;;3.47;;
21014;SDS011;19207;-23.482;-46.500;2023-02-03T15:55:30;5.55;;;3.60;;
21014;SDS011;19207;-23.482;-46.500;2023-02-03T15:58:38;6.05;;;3.75;;
21014;SDS011;19207;-23.482;-46.500;2023-02-03T16:01:31;5.20;;;3.30;;
21014;SDS011;19207;-23.482;-46.500;2023-02-03T16:04:21;7.45;;;3.42;;
21014;SDS011;19207;-23.482;-46.500;2023-02-03T16:07:26;5.10;;;3.87;;
21014;SDS011;19207;-23.482;-46.500;2023-02-03T16:10:32;5.30;;;3.90;;
21014;SDS011;19207;-23.482;-46.500;2023-02-03T16:13:23;5.57;;;3.50;;
21014;SDS011;19207;-23.482;-46.500;2023-02-03T16:16:34;9.40;;;3.80;;
21014;SDS011;19207;-23.482;-46.500;2023-02-03T16:19:23;3.87;;;3.50;;
21014;SDS011;19207;-23.482;-46.500;2023-02-03T16:22:27;4.10;;;3.70;;
21014;SDS011;19207;-23.482;-46.500;2023-02-03T16:25:25;4.32;;;3.20;;
21014;SDS011;19207;-23.482;-46.500;2023-02-03T16:28:31;5.28;;;3.60;;
21014;SDS011;19207;-23.482;-46.500;2023-02-03T16:31:43;4.32;;;3.53;;
21014;SDS011;19207;-23.482;-46.500;2023-02-03T16:34:58;4.75;;;3.70;;
21014;SDS011;19207;-23.482;-46.500;2023-02-03T16:38:05;6.50;;;3.60;;
21014;SDS011;19207;-23.482;-46.500;2023-02-03T16:41:18;5.50;;;3.72;;
21014;SDS011;19207;-23.482;-46.500;2023-02-03T16:44:24;8.35;;;3.83;;
21014;SDS011;19207;-23.482;-46.500;2023-02-03T16:47:31;3.60;;;3.30;;
21014;SDS011;19207;-23.482;-46.500;2023-02-03T16:50:37;5.30;;;3.37;;
21014;SDS011;19207;-23.482;-46.500;2023-02-03T16:53:43;3.70;;;3.40;;
21014;SDS011;19207;-23.482;-46.500;2023-02-03T16:56:36;5.37;;;3.35;;
21014;SDS011;19207;-23.482;-46.500;2023-02-03T16:59:33;6.40;;;3.30;;
21014;SDS011;19207;-23.482;-46.500;2023-02-03T17:02:27;5.47;;;3.40;;
21014;SDS011;19207;-23.482;-46.500;2023-02-03T17:05:17;5.18;;;3.40;;
21014;SDS011;19207;-23.482;-46.500;2023-02-03T17:08:08;4.37;;;3.22;;
21014;SDS011;19207;-23.482;-46.500;2023-02-03T17:11:06;3.83;;;3.40;;
21014;SDS011;19207;-23.482;-46.500;2023-02-03T17:14:01;3.67;;;3.28;;
21014;SDS011;19207;-23.482;-46.500;2023-02-03T17:16:50;5.18;;;3.97;;
21014;SDS011;19207;-23.482;-46.500;2023-02-03T17:19:56;3.83;;;3.20;;
21014;SDS011;19207;-23.482;-46.500;2023-02-03T17:22:50;5.62;;;3.40;;
21014;SDS011;19207;-23.482;-46.500;2023-02-03T17:25:44;3.78;;;3.40;;
21014;SDS011;19207;-23.482;-46.500;2023-02-03T17:28:34;9.18;;;3.30;;
21014;SDS011;19207;-23.482;-46.500;2023-02-03T17:31:28;4.78;;;3.00;;
21014;SDS011;19207;-23.482;-46.500;2023-02-03T17:34:20;4.40;;;3.10;;
21014;SDS011;19207;-23.482;-46.500;2023-02-03T17:37:11;4.45;;;3.30;;
21014;SDS011;19207;-23.482;-46.500;2023-02-03T17:40:00;4.57;;;3.30;;
21014;SDS011;19207;-23.482;-46.500;2023-02-03T17:42:54;6.43;;;3.60;;
21014;SDS011;19207;-23.482;-46.500;2023-02-03T17:45:46;6.72;;;3.42;;
21014;SDS011;19207;-23.482;-46.500;2023-02-03T17:48:37;4.87;;;3.28;;
21014;SDS011;19207;-23.482;-46.500;2023-02-03T17:51:32;5.82;;;3.40;;
21014;SDS011;19207;-23.482;-46.500;2023-02-03T17:54:27;5.37;;;3.25;;
21014;SDS011;19207;-23.482;-46.500;2023-02-03T17:57:23;4.80;;;3.20;;
21014;SDS011;19207;-23.482;-46.500;2023-02-03T18:00:11;4.68;;;3.30;;
21014;SDS011;19207;-23.482;-46.500;2023-02-03T18:03:02;5.18;;;3.25;;
21014;SDS011;19207;-23.482;-46.500;2023-02-03T18:05:51;5.03;;;3.37;;
21014;SDS011;19207;-23.482;-46.500;2023-02-03T18:08:41;6.40;;;3.55;;
21014;SDS011;19207;-23.482;-46.500;2023-02-03T18:11:32;4.57;;;3.42;;
21014;SDS011;19207;-23.482;-46.500;2023-02-03T18:14:24;4.72;;;3.50;;
21014;SDS011;19207;-23.482;-46.500;2023-02-03T18:17:14;6.22;;;3.70;;
21014;SDS011;19207;-23.482;-46.500;2023-02-03T18:20:06;8.10;;;3.50;;
21014;SDS011;19207;-23.482;-46.500;2023-02-03T18:23:00;5.05;;;3.67;;
21014;SDS011;19207;-23.482;-46.500;2023-02-03T18:25:52;5.30;;;3.95;;
21014;SDS011;19207;-23.482;-46.500;2023-02-03T18:28:41;6.35;;;4.20;;
21014;SDS011;19207;-23.482;-46.500;2023-02-03T18:31:29;5.30;;;3.40;;